»·PEaware :: N782S KPRC-KVNY

N782S :: KPRC-KVNY

FLIGHT INFORMATION

Flight Status: Arrived
Operator: Privately registered:
United States
More flights under this callsign
Pilot: Anonymous 38068 (38068)
Aircraft: CESSNA T210 TURBO CENTURION
(T210)
More flights by this aircraft type
Origin: KPRC Love
United States
Destination: KVNY Van Nuys
United States
More flights between these airports :: More routes between these airports
Route:
File this flight plan on PilotEdge
Remarks:
Altitude:
(Current/Filed)
12,500ft
Speed:
(Current/Filed)
0kts
Departed: 16-Oct-23 04:36 PM
Arrived: 16-Oct-23 06:47 PM
Distance/Time
Traveled:
302nm/2:11
Distance/Time
To Go:
Arrived

Flight Plot

Page will automatically refresh every two minutes.

Flight plan parsing failed; only flown route is shown


Map Options




Map Legend


Flown Route
Filed Route
Departure Airport
Arrival Airport
Navaid (VOR, NDB)
Fix

Horizontal Profiles

Position Reports

Time Latitude Longitude Heading Altitude Ground
Speed
16-Oct-23 16:15 34.646786 -112.424428 294 5022ft 0kts
16-Oct-23 16:16 34.646786 -112.424428 294 5022ft 0kts
16-Oct-23 16:17 34.646786 -112.424428 294 5022ft 0kts
16-Oct-23 16:18 34.646786 -112.424428 294 5022ft 0kts
16-Oct-23 16:19 34.646786 -112.424428 294 5022ft 0kts
16-Oct-23 16:20 34.646786 -112.424428 294 5022ft 0kts
16-Oct-23 16:21 34.646786 -112.424428 294 5022ft 0kts
16-Oct-23 16:22 34.646786 -112.424428 294 5022ft 0kts
16-Oct-23 16:23 34.646786 -112.424428 294 5022ft 0kts
16-Oct-23 16:24 34.646786 -112.424428 294 5022ft 0kts
16-Oct-23 16:25 34.647071 -112.424479 27 5020ft 3kts
16-Oct-23 16:26 34.647033 -112.423536 54 5019ft 2kts
16-Oct-23 16:27 34.647152 -112.422403 135 5019ft 8kts
16-Oct-23 16:28 34.645442 -112.420500 137 5026ft 12kts
16-Oct-23 16:29 34.643941 -112.418797 144 5035ft 2kts
16-Oct-23 16:30 34.643728 -112.418331 51 5036ft 0kts
16-Oct-23 16:31 34.643728 -112.418331 51 5036ft 0kts
16-Oct-23 16:32 34.643900 -112.418083 47 5036ft 3kts
16-Oct-23 16:33 34.644099 -112.418068 315 5036ft 0kts
16-Oct-23 16:34 34.644448 -112.418472 325 5034ft 16kts
16-Oct-23 16:35 34.657340 -112.433891 308 5303ft 84kts
16-Oct-23 16:36 34.660375 -112.458923 225 6511ft 100kts
16-Oct-23 16:37 34.649579 -112.488985 257 7947ft 108kts
16-Oct-23 16:38 34.643733 -112.528497 251 9352ft 118kts
16-Oct-23 16:39 34.633059 -112.565702 246 10837ft 120kts
16-Oct-23 16:40 34.628020 -112.606968 262 12058ft 118kts
16-Oct-23 16:41 34.620792 -112.656590 256 12172ft 174kts
16-Oct-23 16:42 34.586997 -112.695100 182 12172ft 188kts
16-Oct-23 16:43 34.534040 -112.695645 179 12167ft 191kts
16-Oct-23 16:44 34.480620 -112.695795 180 12166ft 191kts
16-Oct-23 16:45 34.427057 -112.695946 180 12167ft 191kts
16-Oct-23 16:46 34.378127 -112.713010 217 12167ft 191kts
16-Oct-23 16:47 34.336798 -112.754321 219 12166ft 191kts
16-Oct-23 16:48 34.294787 -112.794435 217 12167ft 191kts
16-Oct-23 16:49 34.251810 -112.832921 215 12166ft 191kts
16-Oct-23 16:50 34.207904 -112.869793 214 12166ft 191kts
16-Oct-23 16:51 34.163398 -112.904911 212 12167ft 190kts
16-Oct-23 16:52 34.118216 -112.938289 210 12167ft 190kts
16-Oct-23 16:53 34.072352 -112.969942 209 12167ft 189kts
16-Oct-23 16:54 34.025532 -113.000043 207 12167ft 190kts
16-Oct-23 16:55 33.978730 -113.029652 209 12167ft 189kts
16-Oct-23 16:56 33.930004 -113.050806 181 12168ft 189kts
16-Oct-23 16:57 33.881855 -113.068995 237 12169ft 189kts
16-Oct-23 16:58 33.872173 -113.131046 264 12167ft 189kts
16-Oct-23 16:59 33.866471 -113.194516 264 12167ft 189kts
16-Oct-23 17:00 33.860737 -113.257945 264 12167ft 189kts
16-Oct-23 17:01 33.854815 -113.321491 264 12167ft 189kts
16-Oct-23 17:02 33.848910 -113.385021 264 12167ft 189kts
16-Oct-23 17:03 33.842994 -113.448865 264 12166ft 190kts
16-Oct-23 17:04 33.837110 -113.512557 265 12167ft 189kts
16-Oct-23 17:05 33.831224 -113.576458 265 12166ft 190kts
16-Oct-23 17:06 33.825358 -113.640324 265 12167ft 189kts
16-Oct-23 17:07 33.819544 -113.703815 264 12167ft 190kts
16-Oct-23 17:08 33.813710 -113.767714 264 12167ft 190kts
16-Oct-23 17:09 33.807906 -113.831469 264 12166ft 190kts
16-Oct-23 17:10 33.802115 -113.895269 264 12166ft 190kts
16-Oct-23 17:11 33.796343 -113.959047 264 12166ft 190kts
16-Oct-23 17:12 33.790574 -114.022977 264 12166ft 190kts
16-Oct-23 17:13 33.784837 -114.086753 265 12167ft 190kts
16-Oct-23 17:14 33.779127 -114.150405 265 12167ft 190kts
16-Oct-23 17:15 33.773628 -114.212541 264 12450ft 181kts
16-Oct-23 17:16 33.768011 -114.275297 265 12451ft 189kts
16-Oct-23 17:17 33.762331 -114.339106 265 12450ft 190kts
16-Oct-23 17:18 33.756644 -114.403186 265 12452ft 194kts
16-Oct-23 17:19 33.750827 -114.468755 265 12450ft 195kts
16-Oct-23 17:20 33.745022 -114.534494 265 12450ft 196kts
16-Oct-23 17:21 33.739250 -114.600088 265 12450ft 196kts
16-Oct-23 17:22 33.733464 -114.666034 264 12450ft 196kts
16-Oct-23 17:23 33.727703 -114.731915 264 12447ft 196kts
16-Oct-23 17:24 33.721987 -114.797494 265 12450ft 196kts
16-Oct-23 17:25 33.716235 -114.863682 265 12450ft 196kts
16-Oct-23 17:26 33.710540 -114.929423 265 12450ft 196kts
16-Oct-23 17:27 33.704839 -114.995413 265 12451ft 196kts
16-Oct-23 17:28 33.699194 -115.061216 265 12450ft 196kts
16-Oct-23 17:29 33.693578 -115.126873 265 12450ft 196kts
16-Oct-23 17:30 33.687978 -115.192487 265 12448ft 196kts
16-Oct-23 17:31 33.682389 -115.258116 265 12450ft 196kts
16-Oct-23 17:32 33.676797 -115.323930 265 12450ft 196kts
16-Oct-23 17:33 33.671203 -115.389908 265 12450ft 196kts
16-Oct-23 17:34 33.665648 -115.455582 265 12450ft 196kts
16-Oct-23 17:35 33.660103 -115.521279 265 12450ft 196kts
16-Oct-23 17:36 33.654553 -115.587192 265 12450ft 196kts
16-Oct-23 17:37 33.649018 -115.653065 265 12455ft 196kts
16-Oct-23 17:38 33.643529 -115.718546 265 12451ft 196kts
16-Oct-23 17:39 33.638072 -115.783863 265 12449ft 195kts
16-Oct-23 17:40 33.632646 -115.848936 265 12451ft 195kts
16-Oct-23 17:42 33.627223 -115.913996 265 12450ft 195kts
16-Oct-23 17:43 33.621761 -115.979501 265 12442ft 196kts
16-Oct-23 17:44 33.616365 -116.044581 265 12441ft 195kts
16-Oct-23 17:45 33.610976 -116.109685 265 12441ft 195kts
16-Oct-23 17:46 33.605608 -116.174701 265 12441ft 195kts
16-Oct-23 17:47 33.600241 -116.239848 265 12440ft 195kts
16-Oct-23 17:48 33.611985 -116.301881 295 12441ft 195kts
16-Oct-23 17:49 33.634448 -116.361228 295 12441ft 195kts
16-Oct-23 17:50 33.656842 -116.420434 295 12440ft 195kts
16-Oct-23 17:51 33.679167 -116.479480 295 12447ft 190kts
16-Oct-23 17:52 33.700916 -116.537056 295 12440ft 188kts
16-Oct-23 17:53 33.722519 -116.594423 295 12453ft 187kts
16-Oct-23 17:54 33.744022 -116.651633 295 12442ft 188kts
16-Oct-23 17:55 33.765596 -116.709128 295 12441ft 188kts
16-Oct-23 17:56 33.787121 -116.766571 295 12439ft 188kts
16-Oct-23 17:57 33.808535 -116.823824 295 12441ft 188kts
16-Oct-23 17:58 33.829945 -116.881169 295 12447ft 187kts
16-Oct-23 17:59 33.851386 -116.938692 295 12441ft 188kts
16-Oct-23 18:00 33.872762 -116.996111 295 12441ft 188kts
16-Oct-23 18:01 33.894185 -117.053791 295 12431ft 188kts
16-Oct-23 18:02 33.915541 -117.111361 295 12432ft 188kts
16-Oct-23 18:03 33.936877 -117.168983 295 12432ft 188kts
16-Oct-23 18:04 33.958115 -117.226439 295 12432ft 188kts
16-Oct-23 18:05 33.979416 -117.284162 295 12432ft 188kts
16-Oct-23 18:05 33.997129 -117.332239 295 12432ft 188kts
16-Oct-23 18:07 34.021831 -117.399403 295 12432ft 188kts
16-Oct-23 18:08 34.043063 -117.457235 295 12432ft 188kts
16-Oct-23 18:09 34.064204 -117.514922 295 12432ft 188kts
16-Oct-23 18:09 34.081813 -117.563045 295 12432ft 188kts
16-Oct-23 18:10 34.102744 -117.620337 295 12432ft 188kts
16-Oct-23 18:12 34.123556 -117.677384 294 12430ft 188kts
16-Oct-23 18:13 34.144645 -117.735288 294 12430ft 187kts
16-Oct-23 18:14 34.157981 -117.794357 264 12430ft 185kts
16-Oct-23 18:14 34.152801 -117.845987 263 12431ft 185kts
16-Oct-23 18:15 34.145799 -117.911956 263 11627ft 207kts
16-Oct-23 18:16 34.157352 -117.976909 297 10461ft 185kts
16-Oct-23 18:18 34.181634 -118.037874 297 9029ft 169kts
16-Oct-23 18:18 34.198815 -118.081156 297 8151ft 168kts
16-Oct-23 18:19 34.217300 -118.127147 296 8080ft 140kts
16-Oct-23 18:20 34.236847 -118.175890 296 8137ft 175kts
16-Oct-23 18:21 34.259446 -118.232379 297 7341ft 185kts
16-Oct-23 18:22 34.281764 -118.287900 297 6528ft 181kts
16-Oct-23 18:23 34.302706 -118.339785 297 6293ft 164kts
16-Oct-23 18:24 34.322516 -118.388908 297 6090ft 161kts
16-Oct-23 18:25 34.331956 -118.439596 243 5840ft 163kts
16-Oct-23 18:26 34.299949 -118.480275 226 5665ft 178kts
16-Oct-23 18:27 34.268632 -118.527799 232 5661ft 182kts
16-Oct-23 18:28 34.239320 -118.577916 252 5996ft 177kts
16-Oct-23 18:29 34.231248 -118.637130 263 6559ft 185kts
16-Oct-23 18:30 34.228459 -118.699445 290 7174ft 162kts
16-Oct-23 18:31 34.265251 -118.733906 359 7375ft 185kts
16-Oct-23 18:32 34.309417 -118.693231 47 6498ft 192kts
16-Oct-23 18:33 34.348920 -118.646603 46 5897ft 186kts
16-Oct-23 18:34 34.381858 -118.604427 34 6022ft 164kts
16-Oct-23 18:35 34.416911 -118.571417 46 5901ft 168kts
16-Oct-23 18:36 34.460271 -118.561369 20 5946ft 164kts
16-Oct-23 18:37 34.473537 -118.524311 174 5928ft 129kts
16-Oct-23 18:38 34.439518 -118.513518 170 5901ft 148kts
16-Oct-23 18:39 34.398448 -118.508466 175 5048ft 141kts
16-Oct-23 18:40 34.365951 -118.505214 173 4273ft 102kts
16-Oct-23 18:41 34.337198 -118.502279 174 3640ft 105kts
16-Oct-23 18:42 34.308502 -118.499606 174 2983ft 102kts
16-Oct-23 18:43 34.279684 -118.496884 174 2334ft 110kts
16-Oct-23 18:44 34.250694 -118.494167 174 1664ft 101kts
16-Oct-23 18:45 34.224891 -118.491732 174 1077ft 88kts
16-Oct-23 18:46 34.208794 -118.490172 176 805ft 6kts
16-Oct-23 18:47 34.206568 -118.490972 263 805ft 0kts
16-Oct-23 18:48 34.206495 -118.492092 273 805ft 8kts
16-Oct-23 18:49 34.206505 -118.493505 77 805ft 0kts
16-Oct-23 18:50 34.206519 -118.493420 77 805ft 0kts
16-Oct-23 18:51 34.206534 -118.493336 77 805ft 0kts
16-Oct-23 18:52 34.206549 -118.493251 77 805ft 0kts
16-Oct-23 18:53 34.206564 -118.493167 77 805ft 0kts
16-Oct-23 18:54 34.206580 -118.493083 76 805ft 0kts
16-Oct-23 18:55 34.206596 -118.492999 76 805ft 0kts
16-Oct-23 18:56 34.206612 -118.492915 76 805ft 0kts
16-Oct-23 18:57 34.206616 -118.492894 0 805ft 0kts

Navigation Log

Ident Type
Flight plan parsing failed, navigation log unavailable